Boynton Beach, FL (33437)

9:03 AM EST on February 25, 2017 (GMT -0500)
Pipers Glen Estates | | Change Station

Elev 27 ft 26.49 °N, 80.14 °W | Updated 2 minutes ago

Clear
Clear
-58.0 °F
Feels Like -58 °F
N
0.0
Wind Variable Wind from NNW
Gusts 0.0 mph

Today
High -- | Low -- °F
--% Chance of Precip.
Yesterday
High -- | Low -- °F
Precip. -- in
Pressure 29.92 in
Visibility 10.0 miles
Clouds Few 3000 ft
Windchill -58 °F
Dew Point Not available.
Humidity Not available.
Rainfall 0.00 in
Snow Depth Not available.
6:47 AM 6:19 PM
Waning Crescent, 1% visible
METAR KPBI 251353Z 25003KT 10SM FEW030 20/19 A2992 RMK AO2 SLP132 T02000194 $
Pressure 29.92 in
Visibility 10.0 miles
Clouds Few 3000 ft
Windchill -58 °F
Dew Point Not available.
Humidity Not available.
Rainfall 0.00 in
Snow Depth Not available.
6:47 AM 6:19 PM
Waning Crescent, 1% visible
METAR KPBI 251353Z 25003KT 10SM FEW030 20/19 A2992 RMK AO2 SLP132 T02000194 $

Get Your Daily Forecast Email!

Thanks for signing up!

Be on the lookout for a verification email in your inbox.

You'll start receiving the daily forecast at 8 AM.

×

10-Day Weather Forecast

Almanac

Astronomy

Feb. 25, 2017 Rise Set
Actual Time
Civil Twilight
Nautical Twilight
Astronomical Twilight
Moon
Length of Visible Light
Length of Day
Tomorrow will be .
, % of the Moon is Illuminated

Today's Extremes

State Highs State Lows

Community

WunderPhotos

Upload Photos

1,962,540 photos uploaded!

WunderBlog® & News

Nearby

Air Quality

  Air Quality AQ Index Pollutant
Not available.

Snow Depth

Station Depth Elevation

Earthquake Activity

City Distance Mag. Time & Date
Minimum magnitude displayed is 2.5.

Coastal Water Temperatures

Place Temperature

Stations

Nearby Weather Stations

Station Location Temp. Windchill Dew Point Humidity Wind Precip. Elev Updated Type
                   

Watches & Warnings

There are currently no watches in effect.